createdAt,value
2023-03-06T04:42:04.560Z,99782.97
2023-03-06T04:45:08.550Z,99782.97
2023-03-06T04:48:15.093Z,99787.91
2023-03-06T04:51:17.907Z,99785.47
2023-03-06T04:54:23.559Z,99779.47
2023-03-06T04:57:26.596Z,99781.16
2023-03-06T05:00:31.514Z,99778.56
2023-03-06T05:03:34.618Z,99775.06
2023-03-06T05:06:37.160Z,99783.03
2023-03-06T05:09:40.018Z,99776.94
2023-03-06T05:12:43.112Z,99771.69
2023-03-06T05:15:46.004Z,99780.37
2023-03-06T05:18:50.781Z,99781.28
2023-03-06T05:21:53.876Z,99781.34
2023-03-06T05:24:56.499Z,99779.47
2023-03-06T05:27:59.307Z,99780.34
2023-03-06T05:31:03.457Z,99788.13
2023-03-06T05:34:06.481Z,99783.81
2023-03-06T05:37:09.121Z,99787.09
2023-03-06T05:40:12.792Z,99783.44
2023-03-06T05:43:15.592Z,99786.03
2023-03-06T05:46:18.615Z,99782.53
2023-03-06T05:49:21.626Z,99783.56
2023-03-06T05:52:24.849Z,99788.84
2023-03-06T05:55:27.609Z,99787.06
2023-03-06T05:58:31.854Z,99785.00
2023-03-06T06:01:34.617Z,99783.97
2023-03-06T06:04:37.480Z,99782.25
2023-03-06T06:07:40.810Z,99785.31
2023-03-06T06:10:43.746Z,99786.47
2023-03-06T06:13:48.009Z,99794.47
2023-03-06T06:16:51.129Z,99801.44
2023-03-06T06:19:53.729Z,99800.56
2023-03-06T06:22:56.932Z,99791.69
2023-03-06T06:26:04.597Z,99800.22
2023-03-06T06:29:08.238Z,99806.19
2023-03-06T06:32:11.458Z,99813.03
2023-03-06T06:35:14.424Z,99810.37
2023-03-06T06:38:17.549Z,99808.59
2023-03-06T06:44:45.308Z,99807.03
2023-03-06T06:47:50.267Z,99811.13
2023-03-06T06:51:00.140Z,99806.50
2023-03-06T06:54:03.570Z,99807.75
2023-03-06T06:57:06.234Z,99806.56
2023-03-06T07:00:12.824Z,99805.50
2023-03-06T07:03:15.697Z,99812.56
2023-03-06T07:06:22.186Z,99803.59
2023-03-06T07:09:24.875Z,99805.97
2023-03-06T07:12:27.739Z,99810.03
2023-03-06T07:15:30.824Z,99816.13
2023-03-06T07:18:33.847Z,99812.47
2023-03-06T07:21:36.795Z,99821.78
2023-03-06T07:24:39.669Z,99834.44
2023-03-06T07:27:42.319Z,99829.06
2023-03-06T07:30:45.230Z,99832.69
2023-03-06T07:33:52.418Z,99825.72
2023-03-06T07:36:56.253Z,99832.44
2023-03-06T07:39:59.089Z,99826.91
2023-03-06T07:43:17.146Z,99828.19
2023-03-06T07:46:22.647Z,99836.75
2023-03-06T07:49:25.718Z,99829.62
2023-03-06T07:52:29.778Z,99833.13
2023-03-06T07:55:34.793Z,99833.56
2023-03-06T07:58:40.019Z,99830.34
2023-03-06T08:01:42.965Z,99842.50
2023-03-06T08:04:51.590Z,99844.41
2023-03-06T08:07:54.053Z,99843.97
2023-03-06T08:10:56.867Z,99846.88
2023-03-06T08:14:00.422Z,99845.41
2023-03-06T08:17:03.414Z,99841.00
2023-03-06T08:20:07.269Z,99844.66
2023-03-06T08:23:10.897Z,99846.75
2023-03-06T08:26:25.513Z,99838.53
2023-03-06T08:29:28.353Z,99838.63
2023-03-06T08:32:30.964Z,99840.56
2023-03-06T08:35:33.954Z,99839.50
2023-03-06T08:38:36.639Z,99843.41
2023-03-06T08:41:40.604Z,99842.13
2023-03-06T08:44:43.238Z,99837.25
2023-03-06T08:47:46.210Z,99841.66
2023-03-06T08:50:49.651Z,99841.87
2023-03-06T08:53:52.874Z,99845.03
2023-03-06T08:56:55.641Z,99842.25
2023-03-06T08:59:58.565Z,99841.28
2023-03-06T09:03:01.198Z,99839.78
2023-03-06T09:06:04.151Z,99837.69
2023-03-06T09:09:09.322Z,99828.06
2023-03-06T09:12:12.461Z,99830.19
2023-03-06T09:15:16.279Z,99823.69
2023-03-06T09:18:19.383Z,99815.06
2023-03-06T09:21:23.011Z,99815.16
2023-03-06T09:24:26.025Z,99816.03
2023-03-06T09:27:28.750Z,99816.09
2023-03-06T09:30:31.745Z,99816.03
2023-03-06T09:33:34.722Z,99798.56
2023-03-06T09:36:49.509Z,99799.25
2023-03-06T09:39:56.584Z,99805.28
2023-03-06T09:42:59.743Z,99795.00
2023-03-06T09:46:21.295Z,99795.06
2023-03-06T09:49:29.270Z,99791.94
2023-03-06T09:52:41.274Z,99801.28
2023-03-06T09:55:51.212Z,99793.44
2023-03-06T09:58:59.709Z,99789.16
2023-03-06T10:02:16.044Z,99785.06
2023-03-06T10:05:26.255Z,99785.41
2023-03-06T10:08:31.902Z,99794.72
2023-03-06T10:11:41.010Z,99788.37
2023-03-06T10:14:48.910Z,99790.50
2023-03-06T10:17:53.192Z,99786.22
2023-03-06T10:21:13.410Z,99781.06
2023-03-06T10:25:18.012Z,99780.44
2023-03-06T10:28:34.432Z,99783.47
2023-03-06T10:31:49.252Z,99783.09
2023-03-06T10:34:53.688Z,99783.81
2023-03-06T10:38:15.845Z,99785.59
2023-03-06T10:41:24.286Z,99781.88
2023-03-06T10:44:27.183Z,99770.63
2023-03-06T10:47:35.343Z,99756.87
2023-03-06T10:50:39.136Z,99750.37
2023-03-06T10:53:53.248Z,99747.06
2023-03-06T10:56:56.254Z,99736.28
2023-03-06T11:00:26.763Z,99735.28
2023-03-06T11:03:31.372Z,99728.66
2023-03-06T11:06:38.014Z,99720.22
2023-03-06T11:09:42.854Z,99716.16
2023-03-06T11:13:03.115Z,99715.94
2023-03-06T11:16:15.118Z,99695.19
2023-03-06T11:19:29.209Z,99697.00
2023-03-06T11:22:32.660Z,99686.09
2023-03-06T11:25:42.724Z,99681.78
2023-03-06T11:29:21.144Z,99676.28
2023-03-06T11:32:31.273Z,99673.44
2023-03-06T11:35:50.857Z,99659.63
2023-03-06T11:38:54.327Z,99651.09
2023-03-06T11:42:24.732Z,99649.06
2023-03-06T11:45:42.422Z,99640.09
2023-03-06T11:49:30.958Z,99622.94
2023-03-06T11:53:03.608Z,99615.81
2023-03-06T11:56:18.935Z,99618.63
2023-03-06T11:59:53.084Z,99615.84
2023-03-06T12:03:16.156Z,99604.06
2023-03-06T12:06:34.185Z,99599.38
2023-03-06T12:13:27.824Z,99579.44
2023-03-06T12:16:53.219Z,99573.47
2023-03-06T12:20:16.530Z,99576.31
2023-03-06T12:23:40.707Z,99567.28
2023-03-06T12:26:56.010Z,99572.78
2023-03-06T12:30:19.384Z,99567.16
2023-03-06T12:33:38.109Z,99561.81
2023-03-06T12:36:59.422Z,99576.13
2023-03-06T12:40:27.116Z,99569.75
2023-03-06T12:43:48.491Z,99566.87
2023-03-06T12:47:02.032Z,99559.63
2023-03-06T12:50:33.582Z,99560.78
2023-03-06T12:53:37.975Z,99552.84
2023-03-06T12:56:42.295Z,99562.91
2023-03-06T12:59:50.056Z,99552.81
2023-03-06T13:03:01.762Z,99546.56
2023-03-06T13:06:32.437Z,99553.25
2023-03-06T13:09:58.286Z,99552.78
2023-03-06T13:13:33.875Z,99546.38
2023-03-06T13:16:36.855Z,99549.84
2023-03-06T13:19:39.756Z,99544.59
2023-03-06T13:22:44.950Z,99540.06
2023-03-06T13:25:50.371Z,99539.06
2023-03-06T13:28:55.018Z,99532.19
2023-03-06T13:32:01.173Z,99525.50
2023-03-06T13:35:29.803Z,99531.06
2023-03-06T13:38:36.556Z,99524.75
2023-03-06T13:41:42.094Z,99522.34
2023-03-06T13:44:46.072Z,99500.88
2023-03-06T13:48:10.991Z,99511.50
2023-03-06T13:51:16.694Z,99508.34
2023-03-06T13:54:24.833Z,99504.47
2023-03-06T13:58:08.717Z,99503.56
2023-03-06T14:01:26.658Z,99490.41
2023-03-06T14:04:34.386Z,99495.16
2023-03-06T14:07:43.293Z,99492.03
2023-03-06T14:10:48.401Z,99494.12
2023-03-06T14:13:54.393Z,99491.41
2023-03-06T14:16:58.627Z,99483.72
2023-03-06T14:20:12.798Z,99477.66
2023-03-06T14:23:21.487Z,99480.72
2023-03-06T14:26:26.147Z,99485.09
2023-03-06T14:29:30.226Z,99480.72
2023-03-06T14:32:32.917Z,99482.91
2023-03-06T14:35:36.596Z,99486.59
2023-03-06T14:38:48.457Z,99488.16
2023-03-06T14:41:51.392Z,99475.59
2023-03-06T14:45:03.180Z,99477.84
2023-03-06T14:48:06.588Z,99474.16
2023-03-06T14:51:20.982Z,99471.78
2023-03-06T14:54:31.522Z,99471.44
2023-03-06T14:57:34.417Z,99467.84
2023-03-06T15:00:40.897Z,99463.84
2023-03-06T15:03:51.571Z,99465.03
2023-03-06T15:06:56.301Z,99465.94
2023-03-06T15:10:00.716Z,99464.31
2023-03-06T15:13:37.135Z,99465.78
2023-03-06T15:16:39.839Z,99454.84
2023-03-06T15:19:44.266Z,99452.72
2023-03-06T15:22:50.808Z,99464.47
2023-03-06T15:25:59.469Z,99453.78
2023-03-06T15:29:11.167Z,99448.28
2023-03-06T15:32:33.479Z,99449.12
2023-03-06T15:35:38.083Z,99443.97
2023-03-06T15:39:01.315Z,99446.44
2023-03-06T15:42:25.021Z,99444.87
2023-03-06T15:45:29.948Z,99441.88
2023-03-06T15:48:35.326Z,99440.47
2023-03-06T15:51:38.357Z,99447.19
2023-03-06T15:54:41.032Z,99445.75
2023-03-06T15:57:54.221Z,99454.66
2023-03-06T16:00:57.274Z,99452.81
2023-03-06T16:04:00.510Z,99459.53
2023-03-06T16:07:03.216Z,99454.97
2023-03-06T16:10:06.740Z,99457.22
2023-03-06T16:13:19.333Z,99463.44
2023-03-06T16:16:34.187Z,99463.75
2023-03-06T16:19:36.868Z,99459.13
2023-03-06T16:22:39.857Z,99472.72
2023-03-06T16:25:45.868Z,99466.03
2023-03-06T16:28:50.368Z,99467.41
2023-03-06T16:31:55.463Z,99467.59
2023-03-06T16:34:58.402Z,99466.44
2023-03-06T16:38:01.013Z,99468.41
2023-03-06T16:41:04.153Z,99477.34
2023-03-06T16:44:07.886Z,99475.59
